Kelso, California
Current Conditions -  °F | °C
As of 4:55 AM on Thursday 30 Oct 2014 (Local Time) from KBYS Reporting Station
Clear Clear  
Wind Chill: 65°   Ceiling: Unl
Heat Index: 65°   Visibility: 10mi
Dew Point: 15°   Wind: 1mph
Humidity: 14%   Direction: 20°NNE
Pressure: 30.04"   Gusts: NA
Location:  35.302°N, 116.014°W
Report Text: KBYS 301155Z AUTO 02001KT 10SM CLR 19/M09 A3004 RMK AO2 SLP142 T01861094 10206 20174 57006 $
Loading
Personal Weather Stations






























Interactive Weather Map
Tropical Storm Tracking
New forecast layout! Learn more

10-Day Weather Forecast

Advertisements
Track Severe Weather on mobile